sensor_id;sensor_type;location;lat;lon;timestamp;pressure;altitude;pressure_sealevel;temperature;humidity
59831;BME280;45711;50.108;13.712;2023-04-02T13:02:15;98067.72;;;5.36;77.93
59831;BME280;45711;50.108;13.712;2023-04-02T13:26:09;98092.91;;;5.50;80.12
59831;BME280;45711;50.108;13.712;2023-04-02T13:35:58;98103.25;;;5.52;77.26
59831;BME280;45711;50.108;13.712;2023-04-02T13:42:32;98116.97;;;5.15;75.11
59831;BME280;45711;50.108;13.712;2023-04-02T13:45:37;98107.59;;;5.24;78.95
59831;BME280;45711;50.108;13.712;2023-04-02T13:48:18;98107.81;;;4.66;77.91
59831;BME280;45711;50.108;13.712;2023-04-02T15:06:02;98201.63;;;4.76;82.58
59831;BME280;45711;50.108;13.712;2023-04-02T15:08:49;98208.22;;;4.62;77.99
59831;BME280;45711;50.108;13.712;2023-04-02T15:11:35;98213.66;;;5.08;77.43
59831;BME280;45711;50.108;13.712;2023-04-02T15:14:30;98219.38;;;4.76;80.35
59831;BME280;45711;50.108;13.712;2023-04-02T15:17:30;98212.59;;;5.49;79.97
59831;BME280;45711;50.108;13.712;2023-04-02T15:53:08;98254.56;;;5.80;79.33
59831;BME280;45711;50.108;13.712;2023-04-02T16:18:58;98292.00;;;4.51;76.06
59831;BME280;45711;50.108;13.712;2023-04-02T16:22:17;98282.53;;;5.02;88.24
59831;BME280;45711;50.108;13.712;2023-04-02T16:28:49;98313.00;;;4.76;75.91
59831;BME280;45711;50.108;13.712;2023-04-02T16:33:52;98312.34;;;5.21;73.83
59831;BME280;45711;50.108;13.712;2023-04-02T16:35:03;98317.16;;;4.84;76.80
59831;BME280;45711;50.108;13.712;2023-04-02T16:38:14;98322.16;;;5.33;86.32
59831;BME280;45711;50.108;13.712;2023-04-02T16:42:11;98328.56;;;4.85;70.91
59831;BME280;45711;50.108;13.712;2023-04-02T16:44:13;98326.84;;;5.54;84.10
59831;BME280;45711;50.108;13.712;2023-04-02T16:49:56;98342.03;;;5.07;74.41
59831;BME280;45711;50.108;13.712;2023-04-02T16:53:06;98340.44;;;5.06;82.05
59831;BME280;45711;50.108;13.712;2023-04-02T16:55:58;98345.50;;;4.84;73.28
59831;BME280;45711;50.108;13.712;2023-04-02T16:59:10;98343.41;;;5.21;78.61
59831;BME280;45711;50.108;13.712;2023-04-02T17:05:42;98354.50;;;4.71;77.00
59831;BME280;45711;50.108;13.712;2023-04-02T17:08:37;98353.19;;;4.08;73.64
59831;BME280;45711;50.108;13.712;2023-04-02T17:17:39;98375.66;;;4.36;78.39
59831;BME280;45711;50.108;13.712;2023-04-02T17:31:15;98387.66;;;5.44;76.06
59831;BME280;45711;50.108;13.712;2023-04-02T17:40:53;98384.44;;;4.83;74.17
59831;BME280;45711;50.108;13.712;2023-04-02T17:43:44;98390.28;;;4.08;73.89
59831;BME280;45711;50.108;13.712;2023-04-02T17:46:54;98395.72;;;3.83;75.11
59831;BME280;45711;50.108;13.712;2023-04-02T17:53:00;98394.16;;;4.24;74.19
59831;BME280;45711;50.108;13.712;2023-04-02T18:06:35;98411.66;;;4.25;79.98
59831;BME280;45711;50.108;13.712;2023-04-02T18:09:38;98419.94;;;3.98;74.08
59831;BME280;45711;50.108;13.712;2023-04-02T18:12:47;98429.19;;;4.91;79.98
59831;BME280;45711;50.108;13.712;2023-04-02T18:19:14;98438.13;;;3.95;75.58
59831;BME280;45711;50.108;13.712;2023-04-02T18:28:47;98442.34;;;3.66;74.87
59831;BME280;45711;50.108;13.712;2023-04-02T18:31:37;98443.81;;;3.62;74.13
59831;BME280;45711;50.108;13.712;2023-04-02T18:34:40;98457.03;;;3.80;75.30
59831;BME280;45711;50.108;13.712;2023-04-02T18:37:32;98464.91;;;3.68;75.71
59831;BME280;45711;50.108;13.712;2023-04-02T18:40:32;98465.00;;;4.59;82.87
59831;BME280;45711;50.108;13.712;2023-04-02T18:43:24;98476.44;;;4.71;72.33
59831;BME280;45711;50.108;13.712;2023-04-02T18:48:59;98475.16;;;4.13;73.71
59831;BME280;45711;50.108;13.712;2023-04-02T18:51:37;98475.84;;;4.57;83.90
59831;BME280;45711;50.108;13.712;2023-04-02T18:54:24;98489.75;;;4.04;72.98
59831;BME280;45711;50.108;13.712;2023-04-02T18:57:09;98485.94;;;3.82;75.33
59831;BME280;45711;50.108;13.712;2023-04-02T18:59:51;98490.56;;;4.04;74.06
59831;BME280;45711;50.108;13.712;2023-04-02T19:03:02;98499.13;;;3.88;72.89
59831;BME280;45711;50.108;13.712;2023-04-02T19:05:47;98499.97;;;4.00;74.01
59831;BME280;45711;50.108;13.712;2023-04-02T19:09:20;98495.19;;;3.91;74.67
59831;BME280;45711;50.108;13.712;2023-04-02T19:13:33;98503.97;;;4.10;74.22
59831;BME280;45711;50.108;13.712;2023-04-02T19:26:08;98517.41;;;3.53;74.86
59831;BME280;45711;50.108;13.712;2023-04-02T19:29:08;98518.44;;;4.07;79.07
59831;BME280;45711;50.108;13.712;2023-04-02T19:32:21;98523.66;;;3.59;74.32
59831;BME280;45711;50.108;13.712;2023-04-02T19:35:16;98523.44;;;4.64;85.24
59831;BME280;45711;50.108;13.712;2023-04-02T19:38:09;98523.69;;;4.62;77.06
59831;BME280;45711;50.108;13.712;2023-04-02T19:44:48;98525.78;;;3.68;75.03
59831;BME280;45711;50.108;13.712;2023-04-02T19:47:25;98528.28;;;3.82;77.62
59831;BME280;45711;50.108;13.712;2023-04-02T19:50:05;98536.56;;;3.92;74.08
59831;BME280;45711;50.108;13.712;2023-04-02T19:52:39;98524.03;;;3.99;82.28
59831;BME280;45711;50.108;13.712;2023-04-02T19:55:29;98536.47;;;3.80;75.27
59831;BME280;45711;50.108;13.712;2023-04-02T19:58:10;98530.56;;;3.60;75.19
59831;BME280;45711;50.108;13.712;2023-04-02T20:01:01;98532.78;;;3.38;76.23
59831;BME280;45711;50.108;13.712;2023-04-02T20:03:27;98536.81;;;3.65;76.64
59831;BME280;45711;50.108;13.712;2023-04-02T20:05:55;98540.44;;;3.46;75.97
59831;BME280;45711;50.108;13.712;2023-04-02T20:08:32;98537.41;;;3.67;78.61
59831;BME280;45711;50.108;13.712;2023-04-02T20:11:05;98533.69;;;3.93;84.36
59831;BME280;45711;50.108;13.712;2023-04-02T20:13:44;98523.25;;;4.47;77.09
59831;BME280;45711;50.108;13.712;2023-04-02T20:22:47;98552.13;;;3.82;74.91
59831;BME280;45711;50.108;13.712;2023-04-02T20:25:16;98552.59;;;3.97;76.92
59831;BME280;45711;50.108;13.712;2023-04-02T20:28:01;98559.66;;;4.03;78.82
59831;BME280;45711;50.108;13.712;2023-04-02T20:30:28;98553.31;;;3.86;74.59
59831;BME280;45711;50.108;13.712;2023-04-02T20:33:01;98561.06;;;3.62;78.90
59831;BME280;45711;50.108;13.712;2023-04-02T20:38:25;98572.84;;;3.66;76.95
59831;BME280;45711;50.108;13.712;2023-04-02T21:44:23;98591.03;;;3.56;78.86
59831;BME280;45711;50.108;13.712;2023-04-02T21:46:50;98593.00;;;3.67;76.79
59831;BME280;45711;50.108;13.712;2023-04-02T21:49:36;98598.66;;;3.46;77.53
59831;BME280;45711;50.108;13.712;2023-04-02T21:52:19;98605.63;;;3.65;76.94
59831;BME280;45711;50.108;13.712;2023-04-02T21:54:48;98601.63;;;3.56;75.80
59831;BME280;45711;50.108;13.712;2023-04-02T21:57:41;98590.56;;;3.41;77.55
59831;BME280;45711;50.108;13.712;2023-04-02T22:00:46;98599.59;;;3.58;79.21
59831;BME280;45711;50.108;13.712;2023-04-02T22:03:15;98596.88;;;3.40;76.66
59831;BME280;45711;50.108;13.712;2023-04-02T22:05:44;98601.34;;;3.64;80.91
59831;BME280;45711;50.108;13.712;2023-04-02T22:11:44;98602.53;;;3.18;77.32
59831;BME280;45711;50.108;13.712;2023-04-02T22:14:27;98601.41;;;3.83;75.72
59831;BME280;45711;50.108;13.712;2023-04-02T22:16:58;98603.34;;;3.44;76.37
59831;BME280;45711;50.108;13.712;2023-04-02T22:19:29;98612.97;;;3.38;77.46
59831;BME280;45711;50.108;13.712;2023-04-02T22:22:13;98610.28;;;3.45;82.79
59831;BME280;45711;50.108;13.712;2023-04-02T22:24:49;98606.81;;;3.69;77.74
59831;BME280;45711;50.108;13.712;2023-04-02T22:27:16;98614.75;;;3.69;76.88
59831;BME280;45711;50.108;13.712;2023-04-02T22:29:44;98610.72;;;3.35;77.96
59831;BME280;45711;50.108;13.712;2023-04-02T22:32:14;98615.56;;;3.45;76.79
59831;BME280;45711;50.108;13.712;2023-04-02T22:34:45;98617.34;;;3.51;78.47
59831;BME280;45711;50.108;13.712;2023-04-02T22:37:23;98613.22;;;3.62;79.25
59831;BME280;45711;50.108;13.712;2023-04-02T22:39:49;98606.94;;;3.31;77.78
59831;BME280;45711;50.108;13.712;2023-04-02T22:42:17;98606.09;;;3.56;83.82
59831;BME280;45711;50.108;13.712;2023-04-02T22:44:54;98607.50;;;3.33;77.85
59831;BME280;45711;50.108;13.712;2023-04-02T22:47:45;98610.34;;;3.63;77.37
59831;BME280;45711;50.108;13.712;2023-04-02T22:50:14;98610.38;;;3.32;76.73
59831;BME280;45711;50.108;13.712;2023-04-02T22:52:46;98602.00;;;3.03;77.99
59831;BME280;45711;50.108;13.712;2023-04-02T22:55:15;98610.47;;;3.43;76.74
59831;BME280;45711;50.108;13.712;2023-04-02T22:57:45;98616.84;;;3.61;76.49
59831;BME280;45711;50.108;13.712;2023-04-02T23:00:26;98613.34;;;3.92;81.90
59831;BME280;45711;50.108;13.712;2023-04-02T23:03:05;98616.97;;;3.72;79.96
59831;BME280;45711;50.108;13.712;2023-04-02T23:05:33;98612.91;;;3.70;75.30
59831;BME280;45711;50.108;13.712;2023-04-02T23:08:01;98614.59;;;3.89;79.34
59831;BME280;45711;50.108;13.712;2023-04-02T23:11:00;98612.44;;;3.55;76.23
59831;BME280;45711;50.108;13.712;2023-04-02T23:13:31;98612.78;;;4.26;84.43
59831;BME280;45711;50.108;13.712;2023-04-02T23:16:11;98612.84;;;4.01;81.88
59831;BME280;45711;50.108;13.712;2023-04-02T23:18:42;98610.09;;;3.90;81.83
59831;BME280;45711;50.108;13.712;2023-04-02T23:21:10;98605.56;;;3.72;80.53
59831;BME280;45711;50.108;13.712;2023-04-02T23:23:39;98603.16;;;4.32;82.24
59831;BME280;45711;50.108;13.712;2023-04-02T23:26:30;98599.47;;;3.71;79.08
59831;BME280;45711;50.108;13.712;2023-04-02T23:29:07;98611.03;;;3.27;76.30
59831;BME280;45711;50.108;13.712;2023-04-02T23:31:38;98605.72;;;3.52;77.39
59831;BME280;45711;50.108;13.712;2023-04-02T23:34:09;98618.34;;;4.00;78.98
59831;BME280;45711;50.108;13.712;2023-04-02T23:36:49;98614.28;;;3.79;76.18
59831;BME280;45711;50.108;13.712;2023-04-02T23:39:15;98607.56;;;3.51;80.53
59831;BME280;45711;50.108;13.712;2023-04-02T23:41:44;98606.09;;;3.56;76.00
59831;BME280;45711;50.108;13.712;2023-04-02T23:44:14;98613.44;;;3.78;84.16
59831;BME280;45711;50.108;13.712;2023-04-02T23:46:41;98601.88;;;3.48;76.87
59831;BME280;45711;50.108;13.712;2023-04-02T23:49:09;98613.88;;;4.56;80.94
59831;BME280;45711;50.108;13.712;2023-04-02T23:51:37;98607.16;;;3.80;75.08
59831;BME280;45711;50.108;13.712;2023-04-02T23:54:03;98610.00;;;3.78;79.56
59831;BME280;45711;50.108;13.712;2023-04-02T23:56:29;98604.97;;;4.13;80.66
59831;BME280;45711;50.108;13.712;2023-04-02T23:58:57;98611.78;;;3.59;77.71
